DLH1519 DTTA-DTTJ
Flight info
| Callsign | DLH1519 |
|---|---|
| Flight time | 0h 38m |
| Altitude | 23000 |
| Route | GIBLI2A GIBLI DCT MON DCT ELJEM DCT SFX DCT ORSIN DCT BISKO |
| Aircraft | A346/H-SDE2E3FGHIJ3J4J5M1RWXY/LB1D1 |
Departure
| Time | 2026-05-08 22:19 |
|---|---|
| Airport | Tunis Carthage International Airport (DTTA) |
Arrival
| Time | 2026-05-08 22:57 |
|---|---|
| Airport | Djerba Zarzis International Airport (DTTJ) |
| Time | Latitude | Longitude | Altitude | Speed | Heading |
|---|---|---|---|---|---|
| 2026-05-08 21:38 | 36.84681 | 10.21967 | 39 ft | 0 kts | 198° |
| 2026-05-08 21:56 | 36.84685 | 10.21969 | 39 ft | 3 kts | 198° |
| 2026-05-08 21:56 | 36.84704 | 10.21976 | 39 ft | 4 kts | 206° |
| 2026-05-08 21:57 | 36.84723 | 10.21994 | 34 ft | 4 kts | 229° |
| 2026-05-08 21:57 | 36.84740 | 10.22017 | 35 ft | 4 kts | 213° |
| 2026-05-08 21:57 | 36.84754 | 10.22024 | 36 ft | 4 kts | 191° |
| 2026-05-08 21:57 | 36.84781 | 10.22030 | 35 ft | 4 kts | 191° |
| 2026-05-08 21:58 | 36.84799 | 10.22035 | 35 ft | 0 kts | 191° |
| 2026-05-08 22:06 | 36.84795 | 10.22034 | 39 ft | 4 kts | 191° |
| 2026-05-08 22:07 | 36.84711 | 10.22028 | 39 ft | 14 kts | 148° |
| 2026-05-08 22:07 | 36.84676 | 10.22075 | 39 ft | 3 kts | 150° |
| 2026-05-08 22:07 | 36.84648 | 10.22087 | 39 ft | 6 kts | 168° |
| 2026-05-08 22:08 | 36.84574 | 10.22087 | 39 ft | 10 kts | 179° |
| 2026-05-08 22:08 | 36.84553 | 10.22095 | 39 ft | 0 kts | 159° |
| 2026-05-08 22:08 | 36.84552 | 10.22095 | 39 ft | 0 kts | 159° |
| 2026-05-08 22:12 | 36.84551 | 10.22096 | 39 ft | 1 kts | 159° |
| 2026-05-08 22:14 | 36.84546 | 10.22098 | 39 ft | 3 kts | 159° |
| 2026-05-08 22:14 | 36.84495 | 10.22174 | 39 ft | 19 kts | 116° |
| 2026-05-08 22:14 | 36.84387 | 10.22225 | 39 ft | 18 kts | 186° |
| 2026-05-08 22:15 | 36.84260 | 10.22206 | 39 ft | 18 kts | 192° |
| 2026-05-08 22:15 | 36.84125 | 10.22162 | 39 ft | 23 kts | 197° |
| 2026-05-08 22:15 | 36.83974 | 10.22119 | 39 ft | 22 kts | 192° |
| 2026-05-08 22:15 | 36.83880 | 10.22154 | 39 ft | 10 kts | 95° |
| 2026-05-08 22:16 | 36.83878 | 10.22192 | 39 ft | 0 kts | 92° |
| 2026-05-08 22:16 | 36.83878 | 10.22193 | 39 ft | 0 kts | 92° |
| 2026-05-08 22:17 | 36.83886 | 10.22244 | 39 ft | 29 kts | 68° |
| 2026-05-08 22:17 | 36.84006 | 10.22397 | 40 ft | 18 kts | 20° |
| 2026-05-08 22:18 | 36.84132 | 10.22429 | 40 ft | 29 kts | 9° |
| 2026-05-08 22:18 | 36.84577 | 10.22542 | 37 ft | 102 kts | 11° |
| 2026-05-08 22:18 | 36.85483 | 10.22791 | 43 ft | 161 kts | 11° |
| 2026-05-08 22:18 | 36.86706 | 10.23072 | 458 ft | 188 kts | 8° |
| 2026-05-08 22:19 | 36.88004 | 10.23379 | 1431 ft | 188 kts | 12° |
| 2026-05-08 22:19 | 36.89270 | 10.23750 | 2424 ft | 190 kts | 13° |
| 2026-05-08 22:19 | 36.90604 | 10.24160 | 3060 ft | 206 kts | 12° |
| 2026-05-08 22:19 | 36.92052 | 10.24586 | 3687 ft | 221 kts | 11° |
| 2026-05-08 22:20 | 36.93577 | 10.25017 | 4465 ft | 227 kts | 9° |
| 2026-05-08 22:20 | 36.95140 | 10.25142 | 5273 ft | 225 kts | 343° |
| 2026-05-08 22:20 | 36.96447 | 10.24198 | 6139 ft | 216 kts | 310° |
| 2026-05-08 22:20 | 36.97111 | 10.22563 | 7027 ft | 211 kts | 281° |
| 2026-05-08 22:21 | 36.96992 | 10.20746 | 7866 ft | 214 kts | 252° |
| 2026-05-08 22:21 | 36.96093 | 10.19233 | 8669 ft | 225 kts | 222° |
| 2026-05-08 22:21 | 36.94632 | 10.18493 | 9477 ft | 236 kts | 200° |
| 2026-05-08 22:21 | 36.93003 | 10.18128 | 10288 ft | 239 kts | 196° |
| 2026-05-08 22:22 | 36.91326 | 10.17937 | 10995 ft | 250 kts | 183° |
| 2026-05-08 22:22 | 36.89615 | 10.18569 | 11688 ft | 267 kts | 158° |
| 2026-05-08 22:22 | 36.88085 | 10.19953 | 12411 ft | 274 kts | 147° |
| 2026-05-08 22:22 | 36.86605 | 10.21497 | 13098 ft | 280 kts | 146° |
| 2026-05-08 22:23 | 36.85042 | 10.22946 | 13787 ft | 279 kts | 155° |
| 2026-05-08 22:23 | 36.83296 | 10.24017 | 14304 ft | 283 kts | 165° |
| 2026-05-08 22:23 | 36.82035 | 10.24646 | 14518 ft | 295 kts | 166° |
| 2026-05-08 22:23 | 36.80050 | 10.25575 | 14836 ft | 314 kts | 167° |
| 2026-05-08 22:24 | 36.77907 | 10.26279 | 15170 ft | 324 kts | 177° |
| 2026-05-08 22:24 | 36.75628 | 10.26694 | 15515 ft | 339 kts | 179° |
| 2026-05-08 22:24 | 36.73227 | 10.27083 | 15836 ft | 356 kts | 179° |
| 2026-05-08 22:24 | 36.70735 | 10.27506 | 16328 ft | 366 kts | 178° |
| 2026-05-08 22:25 | 36.68201 | 10.27964 | 17006 ft | 370 kts | 178° |
| 2026-05-08 22:25 | 36.65646 | 10.28438 | 17494 ft | 384 kts | 178° |
| 2026-05-08 22:25 | 36.62943 | 10.28942 | 17828 ft | 402 kts | 178° |
| 2026-05-08 22:25 | 36.60133 | 10.29475 | 18327 ft | 413 kts | 178° |
| 2026-05-08 22:26 | 36.57273 | 10.30027 | 18979 ft | 418 kts | 178° |
| 2026-05-08 22:26 | 36.54397 | 10.30585 | 19687 ft | 420 kts | 178° |
| 2026-05-08 22:26 | 36.51502 | 10.31145 | 20447 ft | 422 kts | 178° |
| 2026-05-08 22:26 | 36.48593 | 10.31709 | 21187 ft | 425 kts | 178° |
| 2026-05-08 22:27 | 36.45662 | 10.32276 | 21895 ft | 427 kts | 178° |
| 2026-05-08 22:27 | 36.42714 | 10.32844 | 22584 ft | 431 kts | 178° |
| 2026-05-08 22:27 | 36.39745 | 10.33415 | 22998 ft | 433 kts | 178° |
| 2026-05-08 22:27 | 36.36767 | 10.33987 | 23082 ft | 433 kts | 178° |
| 2026-05-08 22:28 | 36.33851 | 10.34547 | 23087 ft | 432 kts | 178° |
| 2026-05-08 22:28 | 36.30816 | 10.35130 | 23091 ft | 432 kts | 178° |
| 2026-05-08 22:28 | 36.27840 | 10.35698 | 23079 ft | 432 kts | 178° |
| 2026-05-08 22:28 | 36.24871 | 10.36266 | 23086 ft | 432 kts | 178° |
| 2026-05-08 22:29 | 36.21901 | 10.36834 | 23091 ft | 432 kts | 178° |
| 2026-05-08 22:29 | 36.18928 | 10.37403 | 23089 ft | 432 kts | 178° |
| 2026-05-08 22:29 | 36.15956 | 10.37971 | 23089 ft | 432 kts | 178° |
| 2026-05-08 22:29 | 36.12978 | 10.38539 | 23096 ft | 433 kts | 178° |
| 2026-05-08 22:30 | 36.10002 | 10.39106 | 23091 ft | 432 kts | 178° |
| 2026-05-08 22:30 | 36.07028 | 10.39673 | 23093 ft | 432 kts | 178° |
| 2026-05-08 22:30 | 36.04057 | 10.40238 | 23066 ft | 432 kts | 178° |
| 2026-05-08 22:30 | 36.01086 | 10.40803 | 23093 ft | 432 kts | 178° |
| 2026-05-08 22:31 | 35.98120 | 10.41369 | 23095 ft | 432 kts | 178° |
| 2026-05-08 22:31 | 35.95155 | 10.41934 | 23095 ft | 432 kts | 178° |
| 2026-05-08 22:31 | 35.92182 | 10.42500 | 23094 ft | 432 kts | 178° |
| 2026-05-08 22:31 | 35.89215 | 10.43064 | 23096 ft | 432 kts | 178° |
| 2026-05-08 22:32 | 35.86246 | 10.43627 | 23094 ft | 432 kts | 178° |
| 2026-05-08 22:32 | 35.83277 | 10.44190 | 23096 ft | 432 kts | 178° |
| 2026-05-08 22:32 | 35.80344 | 10.44745 | 23095 ft | 432 kts | 178° |
| 2026-05-08 22:32 | 35.77372 | 10.45307 | 23085 ft | 432 kts | 178° |
| 2026-05-08 22:33 | 35.74404 | 10.45868 | 23089 ft | 432 kts | 178° |
| 2026-05-08 22:33 | 35.71430 | 10.46430 | 23090 ft | 432 kts | 178° |
| 2026-05-08 22:33 | 35.68457 | 10.46991 | 23094 ft | 432 kts | 178° |
| 2026-05-08 22:33 | 35.65483 | 10.47552 | 23094 ft | 432 kts | 178° |
| 2026-05-08 22:34 | 35.62508 | 10.48113 | 23092 ft | 432 kts | 178° |
| 2026-05-08 22:34 | 35.59536 | 10.48672 | 23092 ft | 432 kts | 178° |
| 2026-05-08 22:34 | 35.56561 | 10.49232 | 23092 ft | 432 kts | 178° |
| 2026-05-08 22:34 | 35.53587 | 10.49791 | 23092 ft | 432 kts | 178° |
| 2026-05-08 22:35 | 35.50610 | 10.50350 | 23093 ft | 432 kts | 178° |
| 2026-05-08 22:35 | 35.47637 | 10.50909 | 23092 ft | 432 kts | 178° |
| 2026-05-08 22:35 | 35.44663 | 10.51467 | 23092 ft | 432 kts | 178° |
| 2026-05-08 22:35 | 35.41689 | 10.52024 | 23091 ft | 432 kts | 178° |
| 2026-05-08 22:36 | 35.38716 | 10.52581 | 23093 ft | 432 kts | 178° |
| 2026-05-08 22:36 | 35.35741 | 10.53138 | 23091 ft | 432 kts | 178° |
| 2026-05-08 22:36 | 35.32767 | 10.53694 | 23092 ft | 432 kts | 178° |
| 2026-05-08 22:36 | 35.29794 | 10.54249 | 23091 ft | 432 kts | 178° |
| 2026-05-08 22:37 | 35.26821 | 10.54802 | 23071 ft | 433 kts | 178° |
| 2026-05-08 22:37 | 35.23839 | 10.55357 | 22947 ft | 433 kts | 178° |
| 2026-05-08 22:37 | 35.20871 | 10.55912 | 22617 ft | 430 kts | 177° |
| 2026-05-08 22:37 | 35.17957 | 10.56457 | 22349 ft | 428 kts | 178° |
| 2026-05-08 22:38 | 35.15017 | 10.57006 | 22041 ft | 426 kts | 178° |
| 2026-05-08 22:38 | 35.12055 | 10.57556 | 21637 ft | 424 kts | 177° |
| 2026-05-08 22:38 | 35.09186 | 10.58089 | 21272 ft | 421 kts | 177° |
| 2026-05-08 22:38 | 35.06300 | 10.58628 | 20867 ft | 418 kts | 177° |
| 2026-05-08 22:39 | 35.03443 | 10.59161 | 20412 ft | 413 kts | 177° |
| 2026-05-08 22:39 | 35.00611 | 10.59685 | 19875 ft | 410 kts | 177° |
| 2026-05-08 22:39 | 34.97801 | 10.60207 | 19365 ft | 407 kts | 177° |
| 2026-05-08 22:39 | 34.95011 | 10.60725 | 18891 ft | 404 kts | 177° |
| 2026-05-08 22:40 | 34.92243 | 10.61239 | 18418 ft | 400 kts | 177° |
| 2026-05-08 22:40 | 34.89500 | 10.61746 | 17851 ft | 397 kts | 177° |
| 2026-05-08 22:40 | 34.86777 | 10.62249 | 17307 ft | 395 kts | 177° |
| 2026-05-08 22:40 | 34.84067 | 10.62748 | 16751 ft | 393 kts | 177° |
| 2026-05-08 22:41 | 34.81371 | 10.63244 | 16209 ft | 391 kts | 176° |
| 2026-05-08 22:41 | 34.78686 | 10.63738 | 15682 ft | 389 kts | 176° |
| 2026-05-08 22:41 | 34.76013 | 10.64227 | 15137 ft | 388 kts | 176° |
| 2026-05-08 22:41 | 34.73351 | 10.64717 | 14633 ft | 386 kts | 176° |
| 2026-05-08 22:42 | 34.70702 | 10.65205 | 14130 ft | 384 kts | 176° |
| 2026-05-08 22:42 | 34.68066 | 10.65689 | 13601 ft | 383 kts | 176° |
| 2026-05-08 22:42 | 34.65442 | 10.66171 | 13052 ft | 380 kts | 175° |
| 2026-05-08 22:42 | 34.62832 | 10.66650 | 12526 ft | 378 kts | 175° |
| 2026-05-08 22:43 | 34.60239 | 10.67126 | 12007 ft | 376 kts | 175° |
| 2026-05-08 22:43 | 34.57659 | 10.67599 | 11488 ft | 374 kts | 175° |
| 2026-05-08 22:43 | 34.55099 | 10.68068 | 10984 ft | 371 kts | 174° |
| 2026-05-08 22:43 | 34.52552 | 10.68534 | 10496 ft | 369 kts | 174° |
| 2026-05-08 22:44 | 34.50017 | 10.69001 | 9967 ft | 368 kts | 175° |
| 2026-05-08 22:44 | 34.47485 | 10.69461 | 9437 ft | 366 kts | 174° |
| 2026-05-08 22:44 | 34.45007 | 10.69914 | 9242 ft | 355 kts | 174° |
| 2026-05-08 22:44 | 34.42602 | 10.70354 | 9036 ft | 344 kts | 174° |
| 2026-05-08 22:45 | 34.40269 | 10.70781 | 8839 ft | 334 kts | 174° |
| 2026-05-08 22:45 | 34.38008 | 10.71193 | 8643 ft | 324 kts | 174° |
| 2026-05-08 22:45 | 34.35812 | 10.71594 | 8468 ft | 314 kts | 174° |
| 2026-05-08 22:45 | 34.33684 | 10.71983 | 8282 ft | 305 kts | 175° |
| 2026-05-08 22:46 | 34.31615 | 10.72361 | 8116 ft | 296 kts | 175° |
| 2026-05-08 22:46 | 34.29598 | 10.72722 | 7858 ft | 290 kts | 176° |
| 2026-05-08 22:46 | 34.27599 | 10.72965 | 7542 ft | 287 kts | 178° |
| 2026-05-08 22:46 | 34.25615 | 10.73173 | 7202 ft | 285 kts | 178° |
| 2026-05-08 22:47 | 34.23642 | 10.73375 | 6897 ft | 283 kts | 178° |
| 2026-05-08 22:47 | 34.21687 | 10.73579 | 6592 ft | 281 kts | 178° |
| 2026-05-08 22:47 | 34.19741 | 10.73785 | 6266 ft | 279 kts | 178° |
| 2026-05-08 22:47 | 34.17815 | 10.73986 | 5953 ft | 277 kts | 178° |
| 2026-05-08 22:48 | 34.15899 | 10.74187 | 5614 ft | 276 kts | 178° |
| 2026-05-08 22:48 | 34.13998 | 10.74392 | 5308 ft | 273 kts | 178° |
| 2026-05-08 22:48 | 34.12111 | 10.74589 | 4988 ft | 272 kts | 178° |
| 2026-05-08 22:48 | 34.10234 | 10.74784 | 4673 ft | 270 kts | 177° |
| 2026-05-08 22:49 | 34.08364 | 10.74915 | 4325 ft | 268 kts | 186° |
| 2026-05-08 22:49 | 34.05363 | 10.72671 | 3667 ft | 260 kts | 238° |
| 2026-05-08 22:49 | 34.04676 | 10.70652 | 3302 ft | 262 kts | 253° |
| 2026-05-08 22:50 | 34.04152 | 10.68538 | 2916 ft | 264 kts | 250° |
| 2026-05-08 22:50 | 34.03476 | 10.66501 | 2571 ft | 265 kts | 243° |
| 2026-05-08 22:50 | 34.02584 | 10.64554 | 2490 ft | 255 kts | 235° |
| 2026-05-08 22:50 | 34.01593 | 10.62886 | 2489 ft | 241 kts | 229° |
| 2026-05-08 22:51 | 34.00516 | 10.61415 | 2484 ft | 229 kts | 223° |
| 2026-05-08 22:51 | 33.99351 | 10.60116 | 2492 ft | 227 kts | 217° |
| 2026-05-08 22:51 | 33.98099 | 10.58956 | 2493 ft | 227 kts | 212° |
| 2026-05-08 22:51 | 33.96771 | 10.57944 | 2502 ft | 225 kts | 207° |
| 2026-05-08 22:52 | 33.95382 | 10.57084 | 2500 ft | 225 kts | 202° |
| 2026-05-08 22:52 | 33.93935 | 10.56367 | 2501 ft | 223 kts | 197° |
| 2026-05-08 22:52 | 33.92489 | 10.55822 | 2492 ft | 215 kts | 193° |
| 2026-05-08 22:52 | 33.91034 | 10.55428 | 2497 ft | 214 kts | 188° |
| 2026-05-08 22:53 | 33.89571 | 10.55380 | 2473 ft | 210 kts | 160° |
| 2026-05-08 22:53 | 33.88355 | 10.56291 | 2486 ft | 208 kts | 129° |
| 2026-05-08 22:53 | 33.87606 | 10.57788 | 2501 ft | 210 kts | 114° |
| 2026-05-08 22:53 | 33.87202 | 10.59455 | 2529 ft | 203 kts | 99° |
| 2026-05-08 22:54 | 33.87116 | 10.61101 | 2425 ft | 192 kts | 91° |
| 2026-05-08 22:54 | 33.87159 | 10.62667 | 2151 ft | 182 kts | 88° |
| 2026-05-08 22:54 | 33.87217 | 10.64142 | 1912 ft | 170 kts | 89° |
| 2026-05-08 22:54 | 33.87259 | 10.65518 | 1700 ft | 159 kts | 89° |
| 2026-05-08 22:55 | 33.87289 | 10.66829 | 1502 ft | 155 kts | 89° |
| 2026-05-08 22:55 | 33.87317 | 10.68105 | 1302 ft | 150 kts | 89° |
| 2026-05-08 22:55 | 33.87345 | 10.69361 | 1109 ft | 149 kts | 89° |
| 2026-05-08 22:55 | 33.87373 | 10.70609 | 938 ft | 149 kts | 87° |
| 2026-05-08 22:56 | 33.87403 | 10.71850 | 739 ft | 148 kts | 87° |
| 2026-05-08 22:56 | 33.87434 | 10.73086 | 542 ft | 147 kts | 87° |
| 2026-05-08 22:56 | 33.87459 | 10.74319 | 352 ft | 147 kts | 87° |
| 2026-05-08 22:56 | 33.87488 | 10.75553 | 109 ft | 146 kts | 87° |
| 2026-05-08 22:57 | 33.87517 | 10.76745 | 29 ft | 117 kts | 88° |
| 2026-05-08 22:57 | 33.87528 | 10.77138 | 30 ft | 24 kts | 88° |
| 2026-05-08 22:57 | 33.87536 | 10.77349 | 28 ft | 26 kts | 88° |
| 2026-05-08 22:57 | 33.87542 | 10.77568 | 32 ft | 23 kts | 88° |
| 2026-05-08 22:58 | 33.87493 | 10.77707 | 31 ft | 17 kts | 152° |
| 2026-05-08 22:58 | 33.87414 | 10.77700 | 34 ft | 11 kts | 224° |
| 2026-05-08 22:58 | 33.87387 | 10.77618 | 35 ft | 2 kts | 263° |
| 2026-05-08 22:58 | 33.87385 | 10.77594 | 35 ft | 5 kts | 265° |
| 2026-05-08 22:59 | 33.87382 | 10.77539 | 35 ft | 8 kts | 266° |
| 2026-05-08 22:59 | 33.87378 | 10.77455 | 35 ft | 12 kts | 266° |
| 2026-05-08 22:59 | 33.87376 | 10.77383 | 35 ft | 0 kts | 255° |
| 2026-05-08 22:59 | 33.87373 | 10.77378 | 35 ft | 3 kts | 239° |
| 2026-05-08 23:00 | 33.87358 | 10.77368 | 35 ft | 1 kts | 175° |
| 2026-05-08 23:00 | 33.87341 | 10.77375 | 35 ft | 5 kts | 156° |
| 2026-05-08 23:00 | 33.87320 | 10.77390 | 35 ft | 0 kts | 145° |
| 2026-05-08 23:01 | 33.87307 | 10.77403 | 35 ft | 4 kts | 141° |
| 2026-05-08 23:01 | 33.87300 | 10.77410 | 35 ft | 0 kts | 139° |
| 2026-05-08 23:01 | 33.87299 | 10.77411 | 35 ft | 0 kts | 139° |